Enfield, North Carolina
Current Conditions -  °F | °C
As of 12:15 PM on Saturday 20 Dec 2014 (Local Time) from KIXA Reporting Station
Light Rain Light Rain  
Wind Chill: 36°   Ceiling: 5500
Heat Index: 36°   Visibility: 10mi
Dew Point: 28°   Wind: 3mph
Humidity: 75%   Direction: 330°NNW
Pressure: 30.29"   Gusts: NA
Location:  36.18°N, 77.67°W
Report Text: KIXA 201715Z AUTO 33003KT 10SM -RA SCT039 SCT048 OVC055 02/M02 A3029 RMK AO2
Loading
Personal Weather Stations






























Interactive Weather Map New forecast layout! Learn more

10-Day Weather Forecast

Advertisements
Track Severe Weather on mobile